createdAt,value
2023-04-06T00:00:10.482Z,958.7600
2023-04-06T00:00:21.523Z,958.7600
2023-04-06T00:00:32.588Z,958.7400
2023-04-06T00:00:43.630Z,958.7600
2023-04-06T00:00:54.691Z,958.7400
2023-04-06T00:01:05.745Z,958.7400
2023-04-06T00:01:16.824Z,958.7400
2023-04-06T00:01:27.876Z,958.7400
2023-04-06T00:01:38.934Z,958.7600
2023-04-06T00:01:50.011Z,958.7600
2023-04-06T00:02:01.061Z,958.7400
2023-04-06T00:02:12.257Z,958.7600
2023-04-06T00:02:23.383Z,958.7600
2023-04-06T00:02:34.546Z,958.7600
2023-04-06T00:02:45.725Z,958.7600
2023-04-06T00:02:56.784Z,958.7400
2023-04-06T00:03:07.960Z,958.7600
2023-04-06T00:03:19.159Z,958.7600
2023-04-06T00:03:30.356Z,958.7400
2023-04-06T00:03:41.582Z,958.7600
2023-04-06T00:03:52.750Z,958.7600
2023-04-06T00:04:03.815Z,958.7400
2023-04-06T00:04:15.088Z,958.7600
2023-04-06T00:04:26.386Z,958.7800
2023-04-06T00:04:37.412Z,958.7800
2023-04-06T00:04:48.486Z,958.7800
2023-04-06T00:04:59.569Z,958.7800
2023-04-06T00:05:10.640Z,958.7800
2023-04-06T00:05:21.692Z,958.7400
2023-04-06T00:05:32.734Z,958.7800
2023-04-06T00:05:43.813Z,958.7800
2023-04-06T00:05:54.856Z,958.7800
2023-04-06T00:06:05.923Z,958.7600
2023-04-06T00:06:17.442Z,958.7600
2023-04-06T00:06:28.534Z,958.7600
2023-04-06T00:06:39.603Z,958.7600
2023-04-06T00:06:50.693Z,958.7600
2023-04-06T00:07:01.738Z,958.7600
2023-04-06T00:07:12.798Z,958.7600
2023-04-06T00:07:23.836Z,958.7600
2023-04-06T00:07:34.891Z,958.7600
2023-04-06T00:07:45.964Z,958.7600
2023-04-06T00:07:57.057Z,958.7600
2023-04-06T00:08:08.092Z,958.7600
2023-04-06T00:08:19.150Z,958.7400
2023-04-06T00:08:30.212Z,958.7600
2023-04-06T00:08:41.243Z,958.7600
2023-04-06T00:08:52.312Z,958.7600
2023-04-06T00:09:03.360Z,958.7600
2023-04-06T00:09:14.428Z,958.7400
2023-04-06T00:09:25.483Z,958.7600
2023-04-06T00:09:36.555Z,958.7600
2023-04-06T00:09:47.619Z,958.7600
2023-04-06T00:09:58.676Z,958.7600
2023-04-06T00:10:09.753Z,958.7600
2023-04-06T00:10:20.800Z,958.7600
2023-04-06T00:10:31.860Z,958.7600
2023-04-06T00:10:42.903Z,958.7400
2023-04-06T00:10:53.965Z,958.7400
2023-04-06T00:11:05.024Z,958.7400
2023-04-06T00:11:16.081Z,958.7400
2023-04-06T00:11:27.130Z,958.7200
2023-04-06T00:11:38.196Z,958.7200
2023-04-06T00:11:49.271Z,958.7200
2023-04-06T00:12:00.346Z,958.7400
2023-04-06T00:12:11.414Z,958.7200
2023-04-06T00:12:22.434Z,958.7200
2023-04-06T00:12:33.479Z,958.7200
2023-04-06T00:12:44.542Z,958.7000
2023-04-06T00:12:55.606Z,958.7000
2023-04-06T00:13:06.682Z,958.7000
2023-04-06T00:13:17.757Z,958.7000
2023-04-06T00:13:28.799Z,958.6800
2023-04-06T00:13:39.884Z,958.6800
2023-04-06T00:13:50.921Z,958.6600
2023-04-06T00:14:01.981Z,958.6600
2023-04-06T00:14:13.076Z,958.6600
2023-04-06T00:14:24.142Z,958.6600
2023-04-06T00:14:35.186Z,958.6600
2023-04-06T00:14:46.257Z,958.6800
2023-04-06T00:14:57.308Z,958.6800
2023-04-06T00:15:08.355Z,958.6800
2023-04-06T00:15:19.402Z,958.6600
2023-04-06T00:15:30.467Z,958.6800
2023-04-06T00:15:41.517Z,958.6800
2023-04-06T00:15:52.553Z,958.6600
2023-04-06T00:16:03.667Z,958.6800
2023-04-06T00:16:14.869Z,958.6400
2023-04-06T00:16:27.616Z,958.6800
2023-04-06T00:16:41.076Z,958.6600
2023-04-06T00:16:52.213Z,958.6600
2023-04-06T00:17:03.373Z,958.6600
2023-04-06T00:17:14.463Z,958.6600
2023-04-06T00:17:25.528Z,958.6600
2023-04-06T00:17:36.630Z,958.6400
2023-04-06T00:17:47.699Z,958.6600
2023-04-06T00:17:58.766Z,958.6600
2023-04-06T00:18:09.844Z,958.6600
2023-04-06T00:18:20.985Z,958.6400
2023-04-06T00:18:32.032Z,958.6400
2023-04-06T00:18:43.100Z,958.6400
2023-04-06T00:18:54.141Z,958.6400
2023-04-06T00:19:05.200Z,958.6200
2023-04-06T00:19:16.283Z,958.6200
2023-04-06T00:19:27.382Z,958.6200
2023-04-06T00:19:38.431Z,958.6000
2023-04-06T00:19:49.483Z,958.6000
2023-04-06T00:20:00.553Z,958.6000
2023-04-06T00:20:11.614Z,958.6200
2023-04-06T00:20:22.671Z,958.6200
2023-04-06T00:20:33.701Z,958.6000
2023-04-06T00:20:44.766Z,958.6000
2023-04-06T00:20:55.830Z,958.6200
2023-04-06T00:21:06.904Z,958.6200
2023-04-06T00:21:17.977Z,958.6000
2023-04-06T00:21:29.046Z,958.6200
2023-04-06T00:21:40.178Z,958.6000
2023-04-06T00:21:51.330Z,958.6000
2023-04-06T00:22:02.422Z,958.6000
2023-04-06T00:22:13.471Z,958.6000
2023-04-06T00:22:24.513Z,958.6000
2023-04-06T00:22:35.553Z,958.6000
2023-04-06T00:22:46.620Z,958.6200
2023-04-06T00:22:57.689Z,958.6000
2023-04-06T00:23:08.729Z,958.5800
2023-04-06T00:23:19.784Z,958.5800
2023-04-06T00:23:30.854Z,958.5800
2023-04-06T00:23:41.919Z,958.6000
2023-04-06T00:23:52.993Z,958.6000
2023-04-06T00:24:04.040Z,958.6000
2023-04-06T00:24:15.088Z,958.6000
2023-04-06T00:24:26.153Z,958.6000
2023-04-06T00:24:37.252Z,958.5800
2023-04-06T00:24:48.310Z,958.5800
2023-04-06T00:24:59.374Z,958.6000
2023-04-06T00:25:10.441Z,958.6000
2023-04-06T00:25:21.541Z,958.6000
2023-04-06T00:25:32.577Z,958.6000
2023-04-06T00:25:43.633Z,958.6000
2023-04-06T00:25:54.704Z,958.6000
2023-04-06T00:26:05.763Z,958.5800
2023-04-06T00:26:16.835Z,958.6000
2023-04-06T00:26:27.878Z,958.6000
2023-04-06T00:26:38.922Z,958.5800
2023-04-06T00:26:49.951Z,958.5800
2023-04-06T00:27:01.019Z,958.6000
2023-04-06T00:27:12.081Z,958.5800
2023-04-06T00:27:23.147Z,958.5800
2023-04-06T00:27:34.220Z,958.6000
2023-04-06T00:27:45.284Z,958.5800
2023-04-06T00:27:56.325Z,958.5800
2023-04-06T00:28:07.389Z,958.6000
2023-04-06T00:28:18.467Z,958.5800
2023-04-06T00:28:29.512Z,958.5800
2023-04-06T00:28:40.581Z,958.5800
2023-04-06T00:28:51.622Z,958.5800
2023-04-06T00:29:02.688Z,958.5800
2023-04-06T00:29:13.741Z,958.6000
2023-04-06T00:29:24.815Z,958.6000
2023-04-06T00:29:35.891Z,958.6000
2023-04-06T00:29:46.940Z,958.5800
2023-04-06T00:29:58.001Z,958.5800
2023-04-06T00:30:09.103Z,958.6000
2023-04-06T00:30:20.186Z,958.6000
2023-04-06T00:30:31.247Z,958.6000
2023-04-06T00:30:42.314Z,958.6000
2023-04-06T00:30:53.387Z,958.6000
2023-04-06T00:31:04.447Z,958.6000
2023-04-06T00:31:15.506Z,958.6200
2023-04-06T00:31:26.574Z,958.6200
2023-04-06T00:31:37.739Z,958.6000
2023-04-06T00:31:48.958Z,958.6000
2023-04-06T00:32:00.145Z,958.6000
2023-04-06T00:32:11.308Z,958.6000
2023-04-06T00:32:22.562Z,958.5800
2023-04-06T00:32:33.697Z,958.5800
2023-04-06T00:32:44.774Z,958.5800
2023-04-06T00:32:55.856Z,958.5800
2023-04-06T00:33:06.994Z,958.5800
2023-04-06T00:33:18.077Z,958.6200
2023-04-06T00:33:29.154Z,958.5800
2023-04-06T00:33:40.209Z,958.5800
2023-04-06T00:33:51.264Z,958.6000
2023-04-06T00:34:02.336Z,958.5800
2023-04-06T00:34:13.399Z,958.5800
2023-04-06T00:34:24.442Z,958.6000
2023-04-06T00:34:35.523Z,958.6000
2023-04-06T00:34:46.692Z,958.5600
2023-04-06T00:34:57.754Z,958.5600
2023-04-06T00:35:08.836Z,958.5600
2023-04-06T00:35:19.905Z,958.5600
2023-04-06T00:35:30.982Z,958.5800
2023-04-06T00:35:42.059Z,958.5600
2023-04-06T00:35:53.149Z,958.5600
2023-04-06T00:36:04.282Z,958.5600
2023-04-06T00:36:15.349Z,958.5600
2023-04-06T00:36:26.395Z,958.5400
2023-04-06T00:36:37.472Z,958.5600
2023-04-06T00:36:48.504Z,958.5600
2023-04-06T00:36:59.555Z,958.5600
2023-04-06T00:37:10.619Z,958.5600
2023-04-06T00:37:21.719Z,958.5600
2023-04-06T00:37:32.732Z,958.5600
2023-04-06T00:37:43.796Z,958.5400
2023-04-06T00:37:54.864Z,958.5400
2023-04-06T00:38:05.942Z,958.5400
2023-04-06T00:38:16.992Z,958.5400
2023-04-06T00:38:28.069Z,958.5600
2023-04-06T00:38:39.104Z,958.5400
2023-04-06T00:38:50.167Z,958.5200
2023-04-06T00:39:01.210Z,958.5200
2023-04-06T00:39:12.278Z,958.5200
2023-04-06T00:39:23.326Z,958.5200
2023-04-06T00:39:34.382Z,958.5200
2023-04-06T00:39:45.433Z,958.5400
2023-04-06T00:39:56.545Z,958.5400
2023-04-06T00:40:07.631Z,958.5200
2023-04-06T00:40:18.654Z,958.5200
2023-04-06T00:40:29.742Z,958.5200
2023-04-06T00:40:40.780Z,958.5200
2023-04-06T00:40:51.848Z,958.5200
2023-04-06T00:41:02.922Z,958.5200
2023-04-06T00:41:13.962Z,958.5400
2023-04-06T00:41:25.020Z,958.5000
2023-04-06T00:41:36.109Z,958.5000
2023-04-06T00:41:47.175Z,958.5000
2023-04-06T00:41:58.251Z,958.5000
2023-04-06T00:42:09.315Z,958.5200
2023-04-06T00:42:20.396Z,958.5200
2023-04-06T00:42:31.455Z,958.5000
2023-04-06T00:42:42.536Z,958.5200
2023-04-06T00:42:53.602Z,958.5200
2023-04-06T00:43:04.653Z,958.5400
2023-04-06T00:43:15.722Z,958.5000
2023-04-06T00:43:26.788Z,958.5000
2023-04-06T00:43:37.873Z,958.5000
2023-04-06T00:43:48.927Z,958.5000
2023-04-06T00:43:59.985Z,958.5000
2023-04-06T00:44:11.046Z,958.5200
2023-04-06T00:44:22.093Z,958.5000
2023-04-06T00:44:33.153Z,958.5200
2023-04-06T00:44:44.196Z,958.5000
2023-04-06T00:44:55.262Z,958.5000
2023-04-06T00:45:06.323Z,958.5000
2023-04-06T00:45:17.384Z,958.4800
2023-04-06T00:45:28.432Z,958.5000
2023-04-06T00:45:39.483Z,958.5000
2023-04-06T00:45:50.591Z,958.5000
2023-04-06T00:46:01.694Z,958.5000
2023-04-06T00:46:12.763Z,958.4800
2023-04-06T00:46:23.942Z,958.4800
2023-04-06T00:46:35.180Z,958.4800
2023-04-06T00:46:46.295Z,958.5200
2023-04-06T00:46:57.362Z,958.5000
2023-04-06T00:47:08.430Z,958.5000
2023-04-06T00:47:19.483Z,958.5000
2023-04-06T00:47:30.578Z,958.4800
2023-04-06T00:47:41.650Z,958.4800
2023-04-06T00:47:52.799Z,958.4800
2023-04-06T00:48:03.942Z,958.4800
2023-04-06T00:48:15.010Z,958.4800
2023-04-06T00:48:26.088Z,958.4600
2023-04-06T00:48:37.144Z,958.4600
2023-04-06T00:48:48.219Z,958.4600
2023-04-06T00:48:59.293Z,958.4800
2023-04-06T00:49:10.349Z,958.4400
2023-04-06T00:49:21.443Z,958.4600
2023-04-06T00:49:32.494Z,958.4400
2023-04-06T00:49:43.545Z,958.4600
2023-04-06T00:49:54.621Z,958.4600
2023-04-06T00:50:05.705Z,958.4600
2023-04-06T00:50:16.773Z,958.4600
2023-04-06T00:50:27.811Z,958.4600
2023-04-06T00:50:38.874Z,958.4800
2023-04-06T00:50:49.960Z,958.4800
2023-04-06T00:51:01.032Z,958.4800
2023-04-06T00:51:12.094Z,958.4800
2023-04-06T00:51:23.123Z,958.4800
2023-04-06T00:51:34.176Z,958.4800
2023-04-06T00:51:45.240Z,958.4800
2023-04-06T00:51:56.270Z,958.4600
2023-04-06T00:52:07.325Z,958.4600
2023-04-06T00:52:18.394Z,958.4600
2023-04-06T00:52:29.454Z,958.4600
2023-04-06T00:52:40.510Z,958.4600
2023-04-06T00:52:51.569Z,958.4600
2023-04-06T00:53:02.628Z,958.4600
2023-04-06T00:53:13.696Z,958.4800
2023-04-06T00:53:24.756Z,958.4800
2023-04-06T00:53:35.843Z,958.4600
2023-04-06T00:53:46.880Z,958.4600
2023-04-06T00:53:57.931Z,958.4800
2023-04-06T00:54:08.970Z,958.4800
2023-04-06T00:54:20.033Z,958.4400
2023-04-06T00:54:31.063Z,958.4600
2023-04-06T00:54:42.124Z,958.4800
2023-04-06T00:54:53.155Z,958.4600
2023-04-06T00:55:04.228Z,958.4600
2023-04-06T00:55:15.319Z,958.4600
2023-04-06T00:55:26.385Z,958.4600
2023-04-06T00:55:37.506Z,958.4600
2023-04-06T00:55:48.516Z,958.4400
2023-04-06T00:55:59.586Z,958.4400
2023-04-06T00:56:10.628Z,958.4400
2023-04-06T00:56:21.669Z,958.4600
2023-04-06T00:56:32.742Z,958.4600
2023-04-06T00:56:43.814Z,958.4600
2023-04-06T00:56:54.877Z,958.4400
2023-04-06T00:57:05.949Z,958.4400
2023-04-06T00:57:17.009Z,958.4400
2023-04-06T00:57:28.051Z,958.4400
2023-04-06T00:57:39.097Z,958.4400
2023-04-06T00:57:50.149Z,958.4400
2023-04-06T00:58:01.203Z,958.4200
2023-04-06T00:58:12.276Z,958.4200
2023-04-06T00:58:23.343Z,958.4400
2023-04-06T00:58:34.379Z,958.4100
2023-04-06T00:58:45.457Z,958.4200
2023-04-06T00:58:56.547Z,958.4200
2023-04-06T00:59:07.863Z,958.4200
2023-04-06T00:59:19.190Z,958.4400
2023-04-06T00:59:30.250Z,958.4400
2023-04-06T00:59:41.332Z,958.4400
2023-04-06T00:59:52.370Z,958.4200
2023-04-06T01:00:03.444Z,958.4200
2023-04-06T01:00:14.483Z,958.4200
2023-04-06T01:00:25.546Z,958.4200
2023-04-06T01:00:36.601Z,958.4200
2023-04-06T01:00:47.658Z,958.4200
2023-04-06T01:00:58.721Z,958.4200
2023-04-06T01:01:09.856Z,958.4100
2023-04-06T01:01:20.939Z,958.4100
2023-04-06T01:01:32.080Z,958.4100
2023-04-06T01:01:43.123Z,958.4200
2023-04-06T01:01:54.321Z,958.4100
2023-04-06T01:02:05.394Z,958.4100
2023-04-06T01:02:16.469Z,958.4100
2023-04-06T01:02:27.625Z,958.4100
2023-04-06T01:02:38.834Z,958.4100
2023-04-06T01:02:49.952Z,958.4100
2023-04-06T01:03:01.082Z,958.4100
2023-04-06T01:03:12.140Z,958.4100
2023-04-06T01:03:23.190Z,958.4200
2023-04-06T01:03:34.247Z,958.4200
2023-04-06T01:03:45.325Z,958.4200
2023-04-06T01:03:56.393Z,958.4100
2023-04-06T01:04:07.457Z,958.4200
2023-04-06T01:04:18.526Z,958.4100
2023-04-06T01:04:29.576Z,958.4200
2023-04-06T01:04:40.616Z,958.4200
2023-04-06T01:04:51.677Z,958.4100
2023-04-06T01:05:02.783Z,958.4100
2023-04-06T01:05:13.859Z,958.4100
2023-04-06T01:05:24.999Z,958.3900
2023-04-06T01:05:36.156Z,958.3900
2023-04-06T01:05:47.341Z,958.4100
2023-04-06T01:05:58.426Z,958.4200
2023-04-06T01:06:09.485Z,958.4200
2023-04-06T01:06:20.525Z,958.4200
2023-04-06T01:06:31.597Z,958.4100
2023-04-06T01:06:42.627Z,958.3900
2023-04-06T01:06:53.709Z,958.3900
2023-04-06T01:07:04.787Z,958.3900
2023-04-06T01:07:15.821Z,958.3900
2023-04-06T01:07:26.900Z,958.4100
2023-04-06T01:07:37.964Z,958.4100
2023-04-06T01:07:49.046Z,958.3900
2023-04-06T01:08:00.102Z,958.3900
2023-04-06T01:08:11.139Z,958.3900
2023-04-06T01:08:22.195Z,958.3900
2023-04-06T01:08:33.238Z,958.4100
2023-04-06T01:08:44.306Z,958.4100
2023-04-06T01:08:55.370Z,958.4100
2023-04-06T01:09:06.872Z,958.3900
2023-04-06T01:09:18.144Z,958.3900
2023-04-06T01:09:29.220Z,958.3900
2023-04-06T01:09:40.278Z,958.3900
2023-04-06T01:09:51.353Z,958.3900
2023-04-06T01:10:02.411Z,958.3900
2023-04-06T01:10:13.468Z,958.3700
2023-04-06T01:10:24.512Z,958.3700
2023-04-06T01:10:35.616Z,958.3900
2023-04-06T01:10:46.660Z,958.3900
2023-04-06T01:10:57.897Z,958.3900
2023-04-06T01:11:08.937Z,958.3700
2023-04-06T01:11:20.024Z,958.3900
2023-04-06T01:11:31.078Z,958.3900
2023-04-06T01:11:42.125Z,958.3900
2023-04-06T01:11:53.194Z,958.3900
2023-04-06T01:12:04.239Z,958.3900
2023-04-06T01:12:15.281Z,958.3900
2023-04-06T01:12:26.346Z,958.3900
2023-04-06T01:12:37.423Z,958.3700
2023-04-06T01:12:48.457Z,958.3700
2023-04-06T01:12:59.522Z,958.3700
2023-04-06T01:13:10.576Z,958.3700
2023-04-06T01:13:21.649Z,958.3700
2023-04-06T01:13:32.705Z,958.4100
2023-04-06T01:13:43.752Z,958.3900
2023-04-06T01:13:54.819Z,958.3700
2023-04-06T01:14:05.872Z,958.3700
2023-04-06T01:14:16.914Z,958.3700
2023-04-06T01:14:27.976Z,958.3700
2023-04-06T01:14:39.033Z,958.3700
2023-04-06T01:14:50.098Z,958.3700
2023-04-06T01:15:01.148Z,958.3700
2023-04-06T01:15:12.206Z,958.3700
2023-04-06T01:15:23.328Z,958.3500
2023-04-06T01:15:34.407Z,958.3500
2023-04-06T01:15:45.562Z,958.3500
2023-04-06T01:15:56.685Z,958.3300
2023-04-06T01:16:07.770Z,958.3300
2023-04-06T01:16:19.012Z,958.3500
2023-04-06T01:16:30.211Z,958.3500
2023-04-06T01:16:41.388Z,958.3300
2023-04-06T01:16:52.443Z,958.3300
2023-04-06T01:17:03.516Z,958.3300
2023-04-06T01:17:14.561Z,958.3300
2023-04-06T01:17:25.651Z,958.3300
2023-04-06T01:17:36.764Z,958.3300
2023-04-06T01:17:47.855Z,958.3300
2023-04-06T01:17:58.985Z,958.3300
2023-04-06T01:18:10.234Z,958.3300
2023-04-06T01:18:21.347Z,958.3500
2023-04-06T01:18:32.424Z,958.3300
2023-04-06T01:18:43.454Z,958.3300
2023-04-06T01:18:54.699Z,958.3500
2023-04-06T01:19:05.838Z,958.3500
2023-04-06T01:19:16.974Z,958.3300
2023-04-06T01:19:28.047Z,958.3300
2023-04-06T01:19:39.108Z,958.3300
2023-04-06T01:19:50.168Z,958.3300
2023-04-06T01:20:01.229Z,958.3300
2023-04-06T01:20:12.288Z,958.3300
2023-04-06T01:20:23.350Z,958.3100
2023-04-06T01:20:34.424Z,958.3100
2023-04-06T01:20:45.486Z,958.3100
2023-04-06T01:20:56.526Z,958.3300
2023-04-06T01:21:07.576Z,958.3100
2023-04-06T01:21:18.626Z,958.3100
2023-04-06T01:21:29.646Z,958.3100
2023-04-06T01:21:40.706Z,958.3100
2023-04-06T01:21:51.776Z,958.3100
2023-04-06T01:22:02.830Z,958.3100
2023-04-06T01:22:13.900Z,958.3100
2023-04-06T01:22:24.933Z,958.3100
2023-04-06T01:22:35.986Z,958.3100
2023-04-06T01:22:47.069Z,958.2900
2023-04-06T01:22:58.132Z,958.2900
2023-04-06T01:23:09.176Z,958.2900
2023-04-06T01:23:20.245Z,958.2900
2023-04-06T01:23:31.307Z,958.2900
2023-04-06T01:23:42.369Z,958.2900
2023-04-06T01:23:53.425Z,958.2900
2023-04-06T01:24:04.496Z,958.2900
2023-04-06T01:24:15.549Z,958.2900
2023-04-06T01:24:26.629Z,958.2900
2023-04-06T01:24:37.663Z,958.2900
2023-04-06T01:24:48.839Z,958.2700
2023-04-06T01:24:59.876Z,958.2700
2023-04-06T01:25:10.945Z,958.2900
2023-04-06T01:25:22.004Z,958.2900
2023-04-06T01:25:33.074Z,958.2900
2023-04-06T01:25:44.143Z,958.2700
2023-04-06T01:25:55.231Z,958.2700
2023-04-06T01:26:06.284Z,958.2900
2023-04-06T01:26:17.335Z,958.2900
2023-04-06T01:26:28.396Z,958.2900
2023-04-06T01:26:39.462Z,958.2900
2023-04-06T01:26:50.524Z,958.2900
2023-04-06T01:27:01.627Z,958.2900
2023-04-06T01:27:12.712Z,958.2900
2023-04-06T01:27:23.762Z,958.2700
2023-04-06T01:27:34.792Z,958.2700
2023-04-06T01:27:45.832Z,958.2900
2023-04-06T01:27:56.886Z,958.2900
2023-04-06T01:28:07.949Z,958.2700
2023-04-06T01:28:19.020Z,958.2700
2023-04-06T01:28:30.084Z,958.2900
2023-04-06T01:28:41.143Z,958.2700
2023-04-06T01:28:52.198Z,958.2700
2023-04-06T01:29:03.269Z,958.2700
2023-04-06T01:29:14.336Z,958.2500
2023-04-06T01:29:25.393Z,958.2500
2023-04-06T01:29:36.454Z,958.2500
2023-04-06T01:29:47.508Z,958.2500
2023-04-06T01:29:58.555Z,958.2700
2023-04-06T01:30:09.601Z,958.2500
2023-04-06T01:30:20.657Z,958.2700
2023-04-06T01:30:31.745Z,958.2500
2023-04-06T01:30:42.856Z,958.2500
2023-04-06T01:30:53.913Z,958.2700
2023-04-06T01:31:05.017Z,958.2700
2023-04-06T01:31:16.115Z,958.2700
2023-04-06T01:31:27.206Z,958.2900
2023-04-06T01:31:38.356Z,958.2700
2023-04-06T01:31:49.568Z,958.2500
2023-04-06T01:32:00.648Z,958.2500
2023-04-06T01:32:11.715Z,958.2500
2023-04-06T01:32:22.799Z,958.2500
2023-04-06T01:32:33.962Z,958.2500
2023-04-06T01:32:45.085Z,958.2500
2023-04-06T01:32:56.204Z,958.2500
2023-04-06T01:33:07.280Z,958.2500
2023-04-06T01:33:18.323Z,958.2500
2023-04-06T01:33:29.378Z,958.2500
2023-04-06T01:33:40.456Z,958.2500
2023-04-06T01:33:51.503Z,958.2500
2023-04-06T01:34:02.578Z,958.2300
2023-04-06T01:34:13.645Z,958.2700
2023-04-06T01:34:24.708Z,958.2700
2023-04-06T01:34:35.795Z,958.2500
2023-04-06T01:34:46.847Z,958.2500
2023-04-06T01:34:57.883Z,958.2700
2023-04-06T01:35:08.938Z,958.2500
2023-04-06T01:35:20.047Z,958.2500
2023-04-06T01:35:31.162Z,958.2700
2023-04-06T01:35:42.356Z,958.2500
2023-04-06T01:35:53.495Z,958.2500
2023-04-06T01:36:04.639Z,958.2500
2023-04-06T01:36:15.747Z,958.2500
2023-04-06T01:36:26.821Z,958.2500
2023-04-06T01:36:37.887Z,958.2500
2023-04-06T01:36:48.960Z,958.2500
2023-04-06T01:37:00.022Z,958.2500
2023-04-06T01:37:11.081Z,958.2500
2023-04-06T01:37:22.158Z,958.2300
2023-04-06T01:37:33.234Z,958.2300
2023-04-06T01:37:44.314Z,958.2300
2023-04-06T01:37:55.340Z,958.2300
2023-04-06T01:38:06.422Z,958.2100
2023-04-06T01:38:17.474Z,958.2300
2023-04-06T01:38:28.534Z,958.2100
2023-04-06T01:38:39.582Z,958.2100
2023-04-06T01:38:50.641Z,958.2100
2023-04-06T01:39:01.699Z,958.2300
2023-04-06T01:39:12.780Z,958.2100
2023-04-06T01:39:23.839Z,958.2100
2023-04-06T01:39:34.903Z,958.2100
2023-04-06T01:39:45.955Z,958.2100
2023-04-06T01:39:57.024Z,958.2100
2023-04-06T01:40:08.119Z,958.2100
2023-04-06T01:40:19.156Z,958.1900
2023-04-06T01:40:30.206Z,958.2100
2023-04-06T01:40:41.246Z,958.1900
2023-04-06T01:40:52.345Z,958.1900
2023-04-06T01:41:03.412Z,958.2100
2023-04-06T01:41:14.448Z,958.2100
2023-04-06T01:41:25.530Z,958.1900
2023-04-06T01:41:36.602Z,958.1900
2023-04-06T01:41:47.653Z,958.1900
2023-04-06T01:41:58.729Z,958.1900
2023-04-06T01:42:09.776Z,958.1900
2023-04-06T01:42:20.820Z,958.1700
2023-04-06T01:42:31.887Z,958.1900
2023-04-06T01:42:42.955Z,958.1900
2023-04-06T01:42:54.001Z,958.1900
2023-04-06T01:43:05.229Z,958.1700
2023-04-06T01:43:16.282Z,958.1900
2023-04-06T01:43:27.339Z,958.1700
2023-04-06T01:43:38.405Z,958.1700
2023-04-06T01:43:49.482Z,958.1700
2023-04-06T01:44:00.550Z,958.1900
2023-04-06T01:44:11.567Z,958.1900
2023-04-06T01:44:22.627Z,958.1700
2023-04-06T01:44:33.700Z,958.1900
2023-04-06T01:44:44.774Z,958.1900
2023-04-06T01:44:55.803Z,958.1700
2023-04-06T01:45:06.871Z,958.1700
2023-04-06T01:45:17.914Z,958.1700
2023-04-06T01:45:28.967Z,958.1900
2023-04-06T01:45:40.032Z,958.1900
2023-04-06T01:45:51.109Z,958.1900
2023-04-06T01:46:02.172Z,958.1900
2023-04-06T01:46:13.365Z,958.1700
2023-04-06T01:46:24.510Z,958.1900
2023-04-06T01:46:35.618Z,958.1900
2023-04-06T01:46:47.075Z,958.1700
2023-04-06T01:46:58.213Z,958.1900
2023-04-06T01:47:09.322Z,958.1900
2023-04-06T01:47:20.384Z,958.1700
2023-04-06T01:47:31.453Z,958.1700
2023-04-06T01:47:42.607Z,958.1700
2023-04-06T01:47:53.734Z,958.1700
2023-04-06T01:48:04.903Z,958.1700
2023-04-06T01:48:16.047Z,958.1700
2023-04-06T01:48:27.074Z,958.1700
2023-04-06T01:48:38.135Z,958.1700
2023-04-06T01:48:49.178Z,958.1700
2023-04-06T01:49:00.244Z,958.1700
2023-04-06T01:49:11.314Z,958.1700
2023-04-06T01:49:22.382Z,958.1700
2023-04-06T01:49:33.439Z,958.1500
2023-04-06T01:49:44.471Z,958.1500
2023-04-06T01:49:55.529Z,958.1500
2023-04-06T01:50:06.592Z,958.1700
2023-04-06T01:50:17.633Z,958.1500
2023-04-06T01:50:28.685Z,958.1500
2023-04-06T01:50:39.745Z,958.1500
2023-04-06T01:50:50.800Z,958.1500
2023-04-06T01:51:01.943Z,958.1500
2023-04-06T01:51:12.960Z,958.1500
2023-04-06T01:51:24.037Z,958.1500
2023-04-06T01:51:35.079Z,958.1500
2023-04-06T01:51:46.135Z,958.1500
2023-04-06T01:51:57.212Z,958.1500
2023-04-06T01:52:08.265Z,958.1500
2023-04-06T01:52:19.337Z,958.1500
2023-04-06T01:52:30.414Z,958.1700
2023-04-06T01:52:41.457Z,958.1500
2023-04-06T01:52:52.523Z,958.1700
2023-04-06T01:53:03.599Z,958.1500
2023-04-06T01:53:14.645Z,958.1500
2023-04-06T01:53:25.716Z,958.1500
2023-04-06T01:53:36.777Z,958.1700
2023-04-06T01:53:47.847Z,958.1700
2023-04-06T01:53:58.931Z,958.1700
2023-04-06T01:54:09.987Z,958.1700
2023-04-06T01:54:21.058Z,958.1700
2023-04-06T01:54:32.112Z,958.1700
2023-04-06T01:54:43.183Z,958.1700
2023-04-06T01:54:54.252Z,958.1700
2023-04-06T01:55:05.315Z,958.1500
2023-04-06T01:55:16.388Z,958.1500
2023-04-06T01:55:27.446Z,958.1300
2023-04-06T01:55:38.493Z,958.1500
2023-04-06T01:55:49.546Z,958.1500
2023-04-06T01:56:00.621Z,958.1500
2023-04-06T01:56:11.722Z,958.1500
2023-04-06T01:56:22.761Z,958.1500
2023-04-06T01:56:33.819Z,958.1500
2023-04-06T01:56:44.873Z,958.1700
2023-04-06T01:56:55.955Z,958.1700
2023-04-06T01:57:06.993Z,958.1700
2023-04-06T01:57:18.048Z,958.1500
2023-04-06T01:57:29.116Z,958.1500
2023-04-06T01:57:40.195Z,958.1500
2023-04-06T01:57:51.256Z,958.1500
2023-04-06T01:58:02.318Z,958.1500
2023-04-06T01:58:13.375Z,958.1500
2023-04-06T01:58:24.410Z,958.1500
2023-04-06T01:58:35.484Z,958.1300
2023-04-06T01:58:46.550Z,958.1500
2023-04-06T01:58:57.666Z,958.1500
2023-04-06T01:59:09.194Z,958.1300
2023-04-06T01:59:20.755Z,958.1500
2023-04-06T01:59:31.836Z,958.1700
2023-04-06T01:59:42.983Z,958.1700
2023-04-06T01:59:54.121Z,958.1500
2023-04-06T02:00:05.162Z,958.1300
2023-04-06T02:00:16.214Z,958.1300
2023-04-06T02:00:27.263Z,958.1300
2023-04-06T02:00:38.370Z,958.1300
2023-04-06T02:00:49.465Z,958.1500
2023-04-06T02:01:00.579Z,958.1300
2023-04-06T02:01:11.660Z,958.1300
2023-04-06T02:01:22.869Z,958.1300
2023-04-06T02:01:34.210Z,958.1300
2023-04-06T02:01:45.292Z,958.1300
2023-04-06T02:01:56.364Z,958.1300
2023-04-06T02:02:07.535Z,958.1300
2023-04-06T02:02:18.665Z,958.1300
2023-04-06T02:02:29.948Z,958.1300
2023-04-06T02:02:41.436Z,958.1300
2023-04-06T02:02:52.495Z,958.1500
2023-04-06T02:03:03.572Z,958.1300
2023-04-06T02:03:14.640Z,958.1300
2023-04-06T02:03:25.685Z,958.1300
2023-04-06T02:03:36.735Z,958.1300
2023-04-06T02:03:47.824Z,958.1300
2023-04-06T02:03:58.874Z,958.1300
2023-04-06T02:04:09.929Z,958.1100
2023-04-06T02:04:20.985Z,958.1100
2023-04-06T02:04:32.034Z,958.1300
2023-04-06T02:04:43.106Z,958.1100
2023-04-06T02:04:54.159Z,958.1300
2023-04-06T02:05:05.237Z,958.1100
2023-04-06T02:05:16.293Z,958.1100
2023-04-06T02:05:27.362Z,958.1100
2023-04-06T02:05:38.416Z,958.1100
2023-04-06T02:05:49.484Z,958.1100
2023-04-06T02:06:00.574Z,958.1100
2023-04-06T02:06:11.618Z,958.1100
2023-04-06T02:06:22.686Z,958.1100
2023-04-06T02:06:33.752Z,958.1100
2023-04-06T02:06:44.836Z,958.1100
2023-04-06T02:06:55.884Z,958.1100
2023-04-06T02:07:06.949Z,958.1300
2023-04-06T02:07:18.001Z,958.1300
2023-04-06T02:07:29.096Z,958.1100
2023-04-06T02:07:40.175Z,958.1100
2023-04-06T02:07:51.228Z,958.1100
2023-04-06T02:08:02.244Z,958.0900
2023-04-06T02:08:13.295Z,958.0900
2023-04-06T02:08:24.370Z,958.0900
2023-04-06T02:08:35.411Z,958.1100
2023-04-06T02:08:46.475Z,958.1100
2023-04-06T02:08:57.541Z,958.1300
2023-04-06T02:09:08.820Z,958.1300
2023-04-06T02:09:20.396Z,958.1300
2023-04-06T02:09:31.445Z,958.1300
2023-04-06T02:09:42.504Z,958.1300
2023-04-06T02:09:53.566Z,958.1300
2023-04-06T02:10:04.619Z,958.1100
2023-04-06T02:10:15.672Z,958.1100